Time;durP1;ratioP1;P1;durP2;ratioP2;P2;SDS_P1;SDS_P2;PMS_P1;PMS_P2;Temp;Humidity;BMP_temperature;BMP_pressure;BME280_temperature;BME280_humidity;BME280_pressure;Samples;Min_cycle;Max_cycle;Signal;HPM_P1;HPM_P2
2022/12/08 00:00:45;;;;;;;4.50;3.75;;;1.50;99.90;;;;;;5050907;28;20206;-65
2022/12/08 00:03:12;;;;;;;6.75;3.70;;;1.40;99.90;;;;;;5051478;28;20213;-66
2022/12/08 00:11:13;;;;;;;4.68;3.55;;;1.20;99.90;;;;;;5039410;28;20200;-66
2022/12/08 00:13:40;;;;;;;4.93;4.30;;;1.20;99.90;;;;;;5051449;28;20202;-66
2022/12/08 00:16:09;;;;;;;5.05;3.83;;;1.10;99.90;;;;;;5050782;28;20538;-65
2022/12/08 00:18:36;;;;;;;6.28;4.20;;;1.10;99.90;;;;;;5051290;28;20206;-65
2022/12/08 00:21:03;;;;;;;3.90;3.53;;;0.90;99.90;;;;;;5050710;28;20206;-65
2022/12/08 00:23:30;;;;;;;4.93;3.80;;;0.90;99.90;;;;;;5051489;28;20205;-65
2022/12/08 00:25:57;;;;;;;5.85;4.47;;;0.80;99.90;;;;;;5050944;28;20202;-65
2022/12/08 00:28:23;;;;;;;6.97;3.78;;;0.70;99.90;;;;;;5051234;28;20221;-66
2022/12/08 00:30:50;;;;;;;5.95;3.90;;;0.60;99.90;;;;;;5050373;28;20590;-65
2022/12/08 00:33:18;;;;;;;5.35;3.90;;;0.60;99.90;;;;;;5092894;22;20227;-88
2022/12/08 00:35:45;;;;;;;6.28;4.13;;;0.50;99.90;;;;;;5120415;28;20227;-88
2022/12/08 00:38:12;;;;;;;5.78;4.07;;;0.40;99.90;;;;;;5127454;28;20266;-92
2022/12/08 00:40:44;;;;;;;3.90;3.53;;;0.40;99.90;;;;;;5127491;28;20834;-89
2022/12/08 00:43:10;;;;;;;6.00;3.95;;;0.30;99.90;;;;;;5111256;28;20227;-89
2022/12/08 00:45:37;;;;;;;5.97;3.58;;;0.30;99.90;;;;;;5097366;28;20227;-90
2022/12/08 00:48:05;;;;;;;5.65;3.42;;;0.20;99.90;;;;;;5097004;28;20215;-89
2022/12/08 00:50:33;;;;;;;4.82;4.13;;;0.20;99.90;;;;;;5096853;28;20245;-88
2022/12/08 00:53:00;;;;;;;6.10;4.55;;;0.10;99.90;;;;;;5096617;28;20224;-90
2022/12/08 00:55:27;;;;;;;7.78;4.53;;;0.00;99.90;;;;;;5096733;28;20220;-89
2022/12/08 00:57:53;;;;;;;5.88;4.43;;;-0.10;99.90;;;;;;5097038;28;20228;-90
2022/12/08 01:00:21;;;;;;;6.00;4.45;;;-0.20;99.90;;;;;;5096634;28;20206;-90
2022/12/08 01:02:47;;;;;;;8.75;4.00;;;-0.20;99.90;;;;;;5096169;28;20216;-89
2022/12/08 01:05:14;;;;;;;5.90;3.95;;;-0.30;99.90;;;;;;5096713;28;20224;-89
2022/12/08 01:07:42;;;;;;;5.38;3.60;;;-0.30;99.90;;;;;;5096106;28;20197;-89
2022/12/08 01:10:09;;;;;;;4.25;2.78;;;-0.40;99.90;;;;;;5096306;28;20200;-89
2022/12/08 01:12:36;;;;;;;6.65;3.65;;;-0.50;99.90;;;;;;5096274;28;20200;-89
2022/12/08 01:15:04;;;;;;;5.50;3.40;;;-0.60;99.90;;;;;;5096078;28;20224;-89
2022/12/08 01:17:30;;;;;;;3.70;3.30;;;-0.70;99.90;;;;;;5096060;28;20207;-88
2022/12/08 01:19:57;;;;;;;7.88;4.45;;;-0.70;99.90;;;;;;5096077;28;20230;-88
2022/12/08 01:22:24;;;;;;;5.47;3.90;;;-0.70;99.90;;;;;;5095858;28;20200;-89
2022/12/08 01:24:52;;;;;;;6.18;4.30;;;-0.80;99.90;;;;;;5096162;28;20204;-89
2022/12/08 01:27:19;;;;;;;5.45;3.50;;;-0.80;99.90;;;;;;5096067;28;20314;-89
2022/12/08 01:29:46;;;;;;;7.47;3.97;;;-0.90;99.90;;;;;;5095754;28;20215;-88
2022/12/08 01:32:13;;;;;;;6.40;3.92;;;-0.90;99.90;;;;;;5096065;28;20261;-89
2022/12/08 01:34:39;;;;;;;8.23;4.03;;;-0.90;99.90;;;;;;5095674;28;20254;-89
2022/12/08 01:37:06;;;;;;;5.72;3.90;;;-0.90;99.90;;;;;;5096001;28;20467;-89
2022/12/08 01:39:33;;;;;;;7.53;4.75;;;-0.90;99.90;;;;;;5095921;28;20211;-89
2022/12/08 01:42:01;;;;;;;5.30;3.60;;;-0.90;99.90;;;;;;5096344;28;20200;-89
2022/12/08 01:44:51;;;;;;;7.30;3.85;;;-0.90;99.90;;;;;;5095368;28;20716;-88
2022/12/08 01:47:18;;;;;;;5.32;3.53;;;-0.90;99.90;;;;;;5096011;28;20207;-89
2022/12/08 01:49:45;;;;;;;7.07;5.20;;;-1.00;99.90;;;;;;5096130;28;20676;-89
2022/12/08 01:52:16;;;;;;;4.45;3.80;;;-1.00;99.90;;;;;;5095775;28;20208;-88
2022/12/08 01:54:49;;;;;;;7.72;4.20;;;-1.00;99.90;;;;;;5095839;28;20235;-88
2022/12/08 01:57:23;;;;;;;5.35;4.22;;;-1.00;99.90;;;;;;5105756;28;20406;-90
2022/12/08 01:59:54;;;;;;;4.57;3.70;;;-1.10;99.90;;;;;;5097249;28;20201;-89
2022/12/08 02:02:21;;;;;;;4.93;3.58;;;-1.10;99.90;;;;;;5095666;28;20201;-90
2022/12/08 02:04:48;;;;;;;4.72;3.70;;;-1.10;99.90;;;;;;5095979;28;20565;-89
2022/12/08 02:07:16;;;;;;;5.55;4.75;;;-1.10;99.90;;;;;;5095807;28;20204;-92
2022/12/08 02:09:44;;;;;;;4.18;3.67;;;-1.10;99.90;;;;;;5095225;28;20200;-91
2022/12/08 02:12:13;;;;;;;4.82;3.83;;;-1.10;99.90;;;;;;5095333;28;20443;-88
2022/12/08 02:14:42;;;;;;;8.15;4.43;;;-1.20;99.90;;;;;;5095043;28;20259;-89
2022/12/08 02:17:22;;;;;;;4.22;3.65;;;-1.10;99.90;;;;;;5095419;28;20192;-89
2022/12/08 02:20:11;;;;;;;4.93;3.42;;;-1.20;99.90;;;;;;5095144;28;20200;-88
2022/12/08 02:22:46;;;;;;;4.85;3.45;;;-1.20;99.90;;;;;;5095459;28;20628;-89
2022/12/08 02:25:20;;;;;;;5.05;3.58;;;-1.20;99.90;;;;;;5095388;28;20196;-89
2022/12/08 02:27:55;;;;;;;5.50;4.57;;;-1.30;99.90;;;;;;5094961;28;20200;-88
2022/12/08 02:30:28;;;;;;;5.60;4.38;;;-1.30;99.90;;;;;;5094884;28;20203;-89
2022/12/08 02:33:21;;;;;;;6.35;3.97;;;-1.30;99.90;;;;;;5094433;28;20231;-88
2022/12/08 02:35:57;;;;;;;5.95;3.75;;;-1.30;99.90;;;;;;5095112;28;20226;-89
2022/12/08 02:38:34;;;;;;;5.72;3.72;;;-1.30;99.90;;;;;;5094812;28;20210;-89
2022/12/08 02:41:09;;;;;;;5.72;4.05;;;-1.30;99.90;;;;;;5098411;28;20196;-91
2022/12/08 02:43:42;;;;;;;4.70;4.00;;;-1.30;99.90;;;;;;5114101;28;20212;-88
2022/12/08 02:46:13;;;;;;;6.15;4.53;;;-1.30;99.90;;;;;;5097263;28;20204;-90
2022/12/08 02:48:41;;;;;;;5.18;3.50;;;-1.30;99.90;;;;;;5096784;28;20211;-89
2022/12/08 02:51:09;;;;;;;7.03;3.85;;;-1.30;99.90;;;;;;5097846;28;20216;-89
2022/12/08 02:53:36;;;;;;;4.82;4.43;;;-1.30;99.90;;;;;;5094666;28;20216;-89
2022/12/08 02:56:18;;;;;;;3.83;3.08;;;-1.30;99.90;;;;;;5094197;28;20631;-90
2022/12/08 02:59:13;;;;;;;5.63;4.15;;;-1.30;99.90;;;;;;5095367;28;20246;-90
2022/12/08 03:01:54;;;;;;;7.20;4.28;;;-1.40;99.90;;;;;;5096278;28;20204;-90
2022/12/08 03:04:30;;;;;;;7.68;4.75;;;-1.40;99.90;;;;;;5094833;28;20228;-89
2022/12/08 03:07:04;;;;;;;5.00;3.05;;;-1.40;99.90;;;;;;5094388;28;20677;-89
2022/12/08 03:09:38;;;;;;;3.40;2.92;;;-1.40;99.90;;;;;;5094363;28;20207;-89
2022/12/08 03:12:11;;;;;;;6.22;4.03;;;-1.40;99.90;;;;;;5101764;28;20220;-91
2022/12/08 03:14:42;;;;;;;6.63;3.80;;;-1.40;99.90;;;;;;5118427;28;20196;-92
2022/12/08 03:17:10;;;;;;;13.50;4.53;;;-1.40;99.90;;;;;;5118364;28;20259;-93
2022/12/08 03:19:41;;;;;;;5.53;3.60;;;-1.50;99.90;;;;;;5114787;28;20192;-88
2022/12/08 03:22:11;;;;;;;7.70;4.15;;;-1.40;99.90;;;;;;5094475;28;20200;-88
2022/12/08 03:24:41;;;;;;;6.40;4.35;;;-1.40;99.90;;;;;;5105906;28;20225;-90
2022/12/08 03:27:15;;;;;;;4.15;3.50;;;-1.40;99.90;;;;;;5097572;28;20204;-90
2022/12/08 03:29:42;;;;;;;4.72;3.90;;;-1.40;99.90;;;;;;5094586;28;20201;-89
2022/12/08 03:32:16;;;;;;;6.43;3.33;;;-1.40;99.90;;;;;;5094668;28;20216;-88
2022/12/08 03:34:46;;;;;;;6.50;4.53;;;-1.40;99.90;;;;;;5093738;28;20232;-90
2022/12/08 03:37:14;;;;;;;3.28;2.97;;;-1.40;99.90;;;;;;5093943;28;20599;-89
2022/12/08 03:39:41;;;;;;;3.72;2.97;;;-1.40;99.90;;;;;;5093605;28;20200;-89
2022/12/08 03:42:08;;;;;;;5.65;3.78;;;-1.60;99.90;;;;;;5093537;28;20200;-88
2022/12/08 03:44:35;;;;;;;5.35;4.85;;;-1.60;99.90;;;;;;5093624;28;20229;-89
2022/12/08 03:47:02;;;;;;;4.43;3.97;;;-1.60;99.90;;;;;;5093541;28;20201;-88
2022/12/08 03:49:28;;;;;;;6.72;4.22;;;-1.70;99.90;;;;;;5093943;28;20200;-89
2022/12/08 03:51:55;;;;;;;5.60;3.78;;;-1.70;99.90;;;;;;5093647;28;20200;-89
2022/12/08 03:54:24;;;;;;;6.00;4.35;;;-1.80;99.90;;;;;;5093808;28;20231;-89
2022/12/08 03:56:50;;;;;;;4.57;3.40;;;-1.80;99.90;;;;;;5093948;28;20224;-89
2022/12/08 03:59:17;;;;;;;5.63;3.83;;;-1.80;99.90;;;;;;5093679;28;20548;-89
2022/12/08 04:01:44;;;;;;;3.22;2.70;;;-1.80;99.90;;;;;;5093597;28;20204;-90
2022/12/08 04:04:11;;;;;;;5.35;3.72;;;-1.80;99.90;;;;;;5094028;28;20220;-89
2022/12/08 04:06:38;;;;;;;5.60;4.15;;;-1.80;99.90;;;;;;5093278;28;20201;-90
2022/12/08 04:09:04;;;;;;;5.07;3.42;;;-1.90;99.90;;;;;;5093128;28;20207;-90
2022/12/08 04:11:33;;;;;;;6.53;4.00;;;-1.90;99.90;;;;;;5093244;28;20204;-89
2022/12/08 04:13:59;;;;;;;4.45;3.13;;;-1.90;99.90;;;;;;5093883;28;20232;-89
2022/12/08 04:16:27;;;;;;;5.22;4.35;;;-1.90;99.90;;;;;;5093905;28;20212;-88
2022/12/08 04:18:54;;;;;;;4.25;3.25;;;-1.90;99.90;;;;;;5101803;28;20211;-87
2022/12/08 04:21:21;;;;;;;5.38;3.97;;;-2.00;99.90;;;;;;5093660;28;20211;-89
2022/12/08 04:23:49;;;;;;;5.65;4.22;;;-2.00;99.90;;;;;;5094240;28;20227;-89
2022/12/08 04:26:16;;;;;;;6.68;4.07;;;-2.00;99.90;;;;;;5094028;28;20592;-89
2022/12/08 04:28:45;;;;;;;3.63;3.28;;;-2.00;99.90;;;;;;5093567;28;20200;-89
2022/12/08 04:31:11;;;;;;;5.13;3.75;;;-2.00;99.90;;;;;;5093295;28;20207;-88
2022/12/08 04:33:38;;;;;;;6.00;3.75;;;-2.00;99.90;;;;;;5095173;28;20232;-92
2022/12/08 04:36:06;;;;;;;7.93;4.25;;;-2.00;99.90;;;;;;5094473;28;20696;-87
2022/12/08 04:38:33;;;;;;;4.38;3.97;;;-2.10;99.90;;;;;;5088281;28;20196;-89
2022/12/08 04:41:01;;;;;;;4.18;2.88;;;-2.10;99.90;;;;;;5083801;28;20197;-87
2022/12/08 04:43:27;;;;;;;4.88;3.28;;;-2.10;99.90;;;;;;5083564;28;20208;-88
2022/12/08 04:45:56;;;;;;;5.68;4.30;;;-2.00;99.90;;;;;;5082909;28;20285;-87
2022/12/08 04:48:22;;;;;;;3.83;3.42;;;-2.00;99.90;;;;;;5087779;28;20200;-86
2022/12/08 04:50:50;;;;;;;7.40;4.20;;;-2.00;99.90;;;;;;5081769;28;20283;-88
2022/12/08 04:53:18;;;;;;;5.85;4.05;;;-2.00;99.90;;;;;;5087503;28;20216;-87
2022/12/08 04:58:54;;;;;;;3.90;3.50;;;-2.10;99.90;;;;;;5096969;28;20294;-92
2022/12/08 05:01:23;;;;;;;3.60;3.15;;;-2.20;99.90;;;;;;5087738;28;20228;-90
2022/12/08 05:03:50;;;;;;;4.10;3.17;;;-2.20;99.90;;;;;;5089137;28;20298;-90
2022/12/08 05:06:19;;;;;;;6.60;4.30;;;-2.20;99.90;;;;;;5081215;28;20304;-90
2022/12/08 05:08:47;;;;;;;8.82;3.55;;;-2.20;99.90;;;;;;5084482;28;20231;-91
2022/12/08 05:11:18;;;;;;;4.18;3.03;;;-2.20;99.90;;;;;;5095441;28;20203;-91
2022/12/08 05:13:45;;;;;;;6.45;3.80;;;-2.20;99.90;;;;;;5083289;28;20213;-90
2022/12/08 05:16:17;;;;;;;7.70;3.78;;;-2.20;99.90;;;;;;5083438;28;20220;-92
2022/12/08 05:18:46;;;;;;;4.68;3.03;;;-2.20;99.90;;;;;;5094524;28;20196;-91
2022/12/08 05:21:14;;;;;;;6.57;3.80;;;-2.30;99.90;;;;;;5094707;28;20200;-91
2022/12/08 05:24:12;;;;;;;5.55;3.30;;;-2.30;99.90;;;;;;5095614;28;20232;-92
2022/12/08 05:26:40;;;;;;;6.85;3.60;;;-2.30;99.90;;;;;;5084279;28;20248;-91
2022/12/08 05:29:14;;;;;;;5.53;4.05;;;-2.30;99.90;;;;;;5083126;28;20204;-92
2022/12/08 05:31:54;;;;;;;4.10;3.65;;;-2.30;99.90;;;;;;5082697;28;20253;-91
2022/12/08 05:34:22;;;;;;;4.28;2.67;;;-2.30;99.90;;;;;;5075951;28;20255;-92
2022/12/08 05:36:52;;;;;;;4.72;3.15;;;-2.20;99.90;;;;;;5082606;28;20297;-92
2022/12/08 05:42:20;;;;;;;5.68;3.15;;;-2.20;99.90;;;;;;5080518;28;20189;-92
2022/12/08 05:44:49;;;;;;;5.47;2.83;;;-2.10;99.90;;;;;;5083751;28;20286;-91
2022/12/08 05:47:16;;;;;;;5.18;3.17;;;-2.10;99.90;;;;;;5104007;22;20229;-68
2022/12/08 05:49:44;;;;;;;4.93;2.90;;;-2.10;99.90;;;;;;5072807;28;20205;-68
2022/12/08 05:52:11;;;;;;;4.70;2.97;;;-2.10;99.90;;;;;;5065205;28;20293;-68
2022/12/08 05:54:38;;;;;;;3.40;2.83;;;-2.00;99.90;;;;;;5055627;28;20194;-68
2022/12/08 05:57:05;;;;;;;3.13;2.83;;;-2.00;99.90;;;;;;5052779;28;20234;-68
2022/12/08 05:59:32;;;;;;;7.30;3.50;;;-2.00;99.90;;;;;;5052810;28;20296;-68
2022/12/08 06:01:58;;;;;;;11.73;4.22;;;-2.00;99.90;;;;;;5052163;28;20335;-69
2022/12/08 06:04:25;;;;;;;9.93;3.75;;;-2.10;99.90;;;;;;5052764;28;20194;-68
2022/12/08 06:06:53;;;;;;;4.07;2.95;;;-2.00;99.90;;;;;;5052264;28;20226;-68
2022/12/08 06:09:20;;;;;;;3.15;2.55;;;-2.10;99.90;;;;;;5052620;28;20210;-69
2022/12/08 06:11:47;;;;;;;9.88;4.63;;;-2.00;99.90;;;;;;5052073;28;20597;-68
2022/12/08 06:14:14;;;;;;;3.90;3.03;;;-2.00;99.90;;;;;;5058092;28;20255;-68
2022/12/08 06:16:41;;;;;;;4.20;3.22;;;-2.00;99.90;;;;;;5062746;28;20312;-68
2022/12/08 06:19:08;;;;;;;3.90;2.80;;;-2.00;99.90;;;;;;5057647;28;20198;-68
2022/12/08 06:21:35;;;;;;;4.47;3.55;;;-2.00;99.90;;;;;;5051921;28;20686;-68
2022/12/08 06:24:03;;;;;;;4.03;3.63;;;-2.00;99.90;;;;;;5052372;28;20217;-68
2022/12/08 06:26:29;;;;;;;3.42;3.13;;;-2.10;99.90;;;;;;5051928;28;20233;-68
2022/12/08 06:28:56;;;;;;;5.40;3.78;;;-2.10;99.90;;;;;;5052092;28;20209;-69
2022/12/08 06:31:25;;;;;;;5.20;2.65;;;-2.10;99.90;;;;;;5051637;28;20578;-68
2022/12/08 06:37:20;;;;;;;9.40;3.85;;;-2.10;99.90;;;;;;5064044;28;20298;-91
2022/12/08 06:39:48;;;;;;;5.13;3.03;;;-2.20;99.90;;;;;;5058723;28;20297;-92
2022/12/08 06:45:41;;;;;;;4.85;3.55;;;-2.20;99.90;;;;;;5112746;22;20601;-59
2022/12/08 06:48:07;;;;;;;5.10;2.60;;;-2.30;99.90;;;;;;5096649;28;20221;-60
2022/12/08 06:50:34;;;;;;;4.97;3.17;;;-2.30;99.90;;;;;;5092768;28;20203;-59
2022/12/08 06:53:01;;;;;;;4.63;3.55;;;-2.30;99.90;;;;;;5093467;28;20200;-61
2022/12/08 06:55:29;;;;;;;5.82;3.20;;;-2.30;99.90;;;;;;5093280;28;20206;-61
2022/12/08 06:57:56;;;;;;;4.88;3.33;;;-2.40;99.90;;;;;;5093570;28;20315;-61
2022/12/08 07:00:23;;;;;;;4.32;2.95;;;-2.40;99.90;;;;;;5092440;28;20288;-62
2022/12/08 07:02:50;;;;;;;9.82;3.92;;;-2.40;99.90;;;;;;5092655;28;20204;-61
2022/12/08 07:05:17;;;;;;;4.93;3.38;;;-2.40;99.90;;;;;;5093627;28;20295;-61
2022/12/08 07:07:44;;;;;;;4.47;2.65;;;-2.40;99.90;;;;;;5093113;28;20242;-60
2022/12/08 07:10:11;;;;;;;5.43;3.30;;;-2.40;99.90;;;;;;5092985;28;20598;-61
2022/12/08 07:12:39;;;;;;;6.10;4.10;;;-2.40;99.90;;;;;;5092433;28;20211;-61
2022/12/08 07:15:07;;;;;;;3.95;3.55;;;-2.40;99.90;;;;;;5092273;28;20204;-64
2022/12/08 07:17:33;;;;;;;4.03;2.75;;;-2.30;99.90;;;;;;5092508;28;20673;-61
2022/12/08 07:20:00;;;;;;;5.38;3.22;;;-2.30;99.90;;;;;;5092671;28;20200;-64
2022/12/08 07:22:27;;;;;;;4.13;3.28;;;-2.20;99.90;;;;;;5091976;28;20573;-61
2022/12/08 07:24:53;;;;;;;6.40;3.40;;;-2.30;99.90;;;;;;5092539;28;20201;-62
2022/12/08 07:27:20;;;;;;;3.95;3.40;;;-2.30;99.90;;;;;;5092485;28;20220;-62
2022/12/08 07:29:48;;;;;;;6.47;3.30;;;-2.30;99.90;;;;;;5092151;28;20250;-62
2022/12/08 07:32:15;;;;;;;3.05;2.50;;;-2.30;99.90;;;;;;5091817;28;20313;-62
2022/12/08 07:34:42;;;;;;;5.90;3.00;;;-2.30;99.90;;;;;;5092218;28;20200;-61
2022/12/08 07:37:08;;;;;;;5.57;4.30;;;-2.30;99.90;;;;;;5092281;28;20235;-62
2022/12/08 07:39:35;;;;;;;4.18;2.97;;;-2.30;99.90;;;;;;5092407;28;20208;-62
2022/12/08 07:42:02;;;;;;;4.63;3.00;;;-2.30;99.90;;;;;;5090680;28;20219;-61
2022/12/08 07:44:29;;;;;;;4.47;3.70;;;-2.20;99.90;;;;;;5091995;28;20212;-61
2022/12/08 07:46:57;;;;;;;3.22;2.50;;;-2.20;99.90;;;;;;5091937;28;20706;-61
2022/12/08 07:49:23;;;;;;;3.60;2.80;;;-2.10;99.90;;;;;;5092171;28;20200;-62
2022/12/08 07:51:50;;;;;;;3.45;2.80;;;-2.00;99.90;;;;;;5083012;28;20295;-61
2022/12/08 07:54:18;;;;;;;7.60;3.90;;;-1.70;99.90;;;;;;5090265;28;20619;-61
2022/12/08 07:56:45;;;;;;;4.90;3.53;;;-1.40;99.90;;;;;;5090086;28;20292;-61
2022/12/08 07:59:13;;;;;;;4.30;3.33;;;-1.00;99.90;;;;;;5089885;28;20212;-61
2022/12/08 08:01:40;;;;;;;3.60;2.90;;;-0.60;99.90;;;;;;5089711;28;20196;-61
2022/12/08 08:04:10;;;;;;;3.92;3.10;;;0.10;99.90;;;;;;5090187;28;20230;-61
2022/12/08 08:06:37;;;;;;;4.70;3.17;;;1.00;99.90;;;;;;5089944;28;20216;-61
2022/12/08 08:09:05;;;;;;;4.13;3.22;;;1.70;99.90;;;;;;5090415;28;20648;-61
2022/12/08 08:11:32;;;;;;;3.97;3.13;;;2.30;99.90;;;;;;5089755;28;20200;-61
2022/12/08 08:14:00;;;;;;;3.05;2.33;;;3.00;99.90;;;;;;5089793;28;20258;-62
2022/12/08 08:16:27;;;;;;;4.68;2.83;;;3.40;99.90;;;;;;5090237;28;20229;-61
2022/12/08 08:18:57;;;;;;;6.95;4.05;;;3.60;99.90;;;;;;5090042;28;20220;-62
2022/12/08 08:21:26;;;;;;;5.57;3.10;;;3.80;99.90;;;;;;5089074;28;20200;-62
2022/12/08 08:23:53;;;;;;;6.18;3.65;;;4.00;99.90;;;;;;5090101;28;20649;-62
2022/12/08 08:26:20;;;;;;;5.80;4.05;;;4.10;99.90;;;;;;5089704;28;20200;-62
2022/12/08 08:28:48;;;;;;;5.93;3.75;;;4.10;99.90;;;;;;5089595;28;20232;-62
2022/12/08 08:31:16;;;;;;;6.60;3.10;;;4.10;99.90;;;;;;5089835;28;20204;-61
2022/12/08 08:33:43;;;;;;;4.55;3.80;;;4.20;99.90;;;;;;5089776;28;20710;-62
2022/12/08 08:36:11;;;;;;;5.72;3.80;;;4.20;99.90;;;;;;5089536;28;20235;-61
2022/12/08 08:38:41;;;;;;;5.68;3.40;;;4.30;99.90;;;;;;5089766;28;20564;-60
2022/12/08 08:41:09;;;;;;;3.38;3.05;;;4.30;99.90;;;;;;5090181;28;20211;-61
2022/12/08 08:43:37;;;;;;;4.55;2.85;;;4.60;99.90;;;;;;5089759;28;20219;-58
2022/12/08 08:46:07;;;;;;;3.80;3.15;;;4.90;99.90;;;;;;5091442;28;20200;-60
2022/12/08 08:48:35;;;;;;;3.40;3.10;;;4.70;99.90;;;;;;5087995;28;20212;-61
2022/12/08 08:51:09;;;;;;;3.30;3.00;;;4.50;99.90;;;;;;5068590;28;20209;-61
2022/12/08 08:53:37;;;;;;;4.88;3.58;;;4.30;99.90;;;;;;5072285;28;20232;-61
2022/12/08 08:56:09;;;;;;;4.80;3.88;;;3.70;99.90;;;;;;5073833;28;20580;-60
2022/12/08 08:58:36;;;;;;;3.60;2.65;;;3.30;99.90;;;;;;5053303;28;20704;-61
2022/12/08 09:01:04;;;;;;;5.80;3.80;;;2.80;99.90;;;;;;5052990;28;20296;-61
2022/12/08 09:03:31;;;;;;;3.78;3.40;;;2.30;99.90;;;;;;5053332;28;20202;-61
2022/12/08 09:05:59;;;;;;;4.10;3.17;;;1.90;99.90;;;;;;5052826;28;20233;-61
2022/12/08 09:08:26;;;;;;;6.82;4.25;;;1.60;99.90;;;;;;5052757;28;20225;-62
2022/12/08 09:10:52;;;;;;;4.63;2.85;;;1.40;99.90;;;;;;5051770;28;20209;-62
2022/12/08 09:13:21;;;;;;;4.10;3.30;;;1.50;99.90;;;;;;5052523;28;20212;-61
2022/12/08 09:15:47;;;;;;;6.75;4.15;;;1.90;99.90;;;;;;5052116;28;20208;-62
2022/12/08 09:18:14;;;;;;;3.83;3.47;;;2.40;99.90;;;;;;5047061;28;20241;-62
2022/12/08 09:20:41;;;;;;;5.10;3.45;;;3.10;99.90;;;;;;5038345;28;20921;-62
2022/12/08 09:23:08;;;;;;;4.43;3.45;;;5.10;99.90;;;;;;4930588;28;20242;-61
2022/12/08 09:25:34;;;;;;;3.63;3.10;;;7.40;99.90;;;;;;5053164;28;20236;-62
2022/12/08 09:28:01;;;;;;;6.25;3.55;;;9.50;99.90;;;;;;4983378;28;20245;-62
2022/12/08 09:32:07;;;;;;;6.05;3.20;;;11.50;99.90;;;;;;5068638;27;20526;-63
2022/12/08 09:34:33;;;;;;;4.38;3.35;;;13.10;98.10;;;;;;5065081;28;20200;-62
2022/12/08 09:37:00;;;;;;;5.10;3.72;;;13.20;98.00;;;;;;5039789;28;20222;-62
2022/12/08 09:39:27;;;;;;;6.93;3.72;;;14.10;96.30;;;;;;5027078;28;20232;-63
2022/12/08 09:41:59;;;;;;;3.83;3.42;;;14.00;95.60;;;;;;5026020;28;20198;-62
2022/12/08 09:44:51;;;;;;;5.05;3.10;;;14.90;94.70;;;;;;5027043;28;20203;-63
2022/12/08 09:47:23;;;;;;;3.55;3.22;;;15.10;94.40;;;;;;5026846;28;20230;-63
2022/12/08 09:49:59;;;;;;;3.47;3.07;;;15.20;93.30;;;;;;5026213;28;20216;-63
2022/12/08 09:52:29;;;;;;;3.90;2.90;;;14.70;93.80;;;;;;5026076;28;20461;-63
2022/12/08 09:54:59;;;;;;;4.07;3.30;;;14.60;93.60;;;;;;5026787;28;20461;-63
2022/12/08 09:57:26;;;;;;;3.83;3.10;;;15.20;93.60;;;;;;5026368;28;20573;-63
2022/12/08 09:59:58;;;;;;;4.80;3.97;;;15.50;92.70;;;;;;5026246;28;20559;-64
2022/12/08 10:02:29;;;;;;;4.20;3.10;;;16.20;92.80;;;;;;5026404;28;20457;-63
2022/12/08 10:04:57;;;;;;;3.53;3.23;;;17.30;92.20;;;;;;5026080;28;20515;-62
2022/12/08 10:07:33;;;;;;;4.00;3.37;;;18.70;89.50;;;;;;5026743;28;20480;-63
2022/12/08 10:10:07;;;;;;;4.27;3.57;;;18.40;90.00;;;;;;5026818;28;20799;-63
2022/12/08 10:12:41;;;;;;;3.70;3.40;;;19.10;89.30;;;;;;5025717;28;20459;-63
2022/12/08 10:15:26;;;;;;;3.83;3.20;;;18.90;86.80;;;;;;5026805;28;20479;-63
2022/12/08 10:17:56;;;;;;;3.90;3.23;;;19.20;87.60;;;;;;5026203;28;20481;-63
2022/12/08 10:20:25;;;;;;;4.87;3.80;;;19.70;84.70;;;;;;5026514;28;20836;-62
2022/12/08 10:23:02;;;;;;;3.40;3.10;;;18.80;85.40;;;;;;5026903;28;21140;-63
2022/12/08 10:25:34;;;;;;;3.80;3.50;;;19.40;86.30;;;;;;5026561;28;20457;-63
2022/12/08 10:28:01;;;;;;;4.43;3.17;;;20.20;82.40;;;;;;5026501;28;20487;-63
2022/12/08 10:30:28;;;;;;;3.47;3.17;;;19.90;82.60;;;;;;5025469;28;20491;-63
2022/12/08 10:32:56;;;;;;;3.90;3.37;;;20.80;83.20;;;;;;5025832;28;20468;-62
2022/12/08 10:35:24;;;;;;;4.70;3.33;;;20.80;82.40;;;;;;5026580;28;20464;-63
2022/12/08 10:37:59;;;;;;;3.30;3.00;;;21.30;78.60;;;;;;5025992;28;20538;-63
2022/12/08 10:40:28;;;;;;;3.90;3.00;;;20.30;80.10;;;;;;5024992;28;20455;-63
2022/12/08 10:42:58;;;;;;;3.67;2.97;;;19.90;79.20;;;;;;5015862;28;20473;-63
2022/12/08 10:45:27;;;;;;;3.50;3.20;;;19.50;79.70;;;;;;5013046;28;20472;-62
2022/12/08 10:48:01;;;;;;;3.33;3.03;;;19.60;79.80;;;;;;5012671;28;20488;-64
2022/12/08 10:50:34;;;;;;;3.30;3.00;;;20.70;78.70;;;;;;5012904;28;20488;-63
2022/12/08 10:53:11;;;;;;;4.10;2.97;;;21.30;78.00;;;;;;5012983;28;20454;-63
2022/12/08 10:55:42;;;;;;;3.60;3.30;;;21.60;77.40;;;;;;5012833;28;21084;-63
2022/12/08 10:58:32;;;;;;;3.87;2.83;;;20.50;77.80;;;;;;5013483;28;20493;-63
2022/12/08 11:01:04;;;;;;;3.37;3.07;;;20.40;77.10;;;;;;5012884;28;20465;-63
2022/12/08 11:03:36;;;;;;;3.40;2.60;;;19.90;77.10;;;;;;5012244;28;20464;-63
2022/12/08 11:06:12;;;;;;;4.47;2.80;;;19.50;77.00;;;;;;5013441;28;20516;-63
2022/12/08 11:08:50;;;;;;;3.40;3.10;;;18.10;79.20;;;;;;5020228;28;20462;-63
2022/12/08 11:11:18;;;;;;;2.80;2.53;;;17.50;80.40;;;;;;5032232;28;20484;-63
2022/12/08 11:13:45;;;;;;;2.60;2.40;;;18.50;78.30;;;;;;5032620;28;20456;-63
2022/12/08 11:16:14;;;;;;;2.80;2.23;;;18.80;78.10;;;;;;5032058;28;20468;-63
2022/12/08 11:18:45;;;;;;;2.63;2.43;;;19.20;76.30;;;;;;5032537;28;20467;-62
2022/12/08 11:21:18;;;;;;;3.07;2.50;;;18.00;78.70;;;;;;5032022;28;20452;-63
2022/12/08 11:23:48;;;;;;;3.80;3.27;;;17.10;79.10;;;;;;5032176;28;20460;-63
2022/12/08 11:26:23;;;;;;;4.07;3.43;;;16.40;81.60;;;;;;5032253;28;20465;-62
2022/12/08 11:28:49;;;;;;;3.70;3.00;;;15.80;83.30;;;;;;5031853;28;20472;-63
2022/12/08 11:31:28;;;;;;;4.30;3.00;;;15.30;84.20;;;;;;5031463;28;20482;-62
2022/12/08 11:33:56;;;;;;;3.63;2.70;;;14.80;84.00;;;;;;5032233;28;20463;-63
2022/12/08 11:36:27;;;;;;;3.95;2.80;;;13.60;84.20;;;;;;5032769;28;20680;-63
2022/12/08 11:38:56;;;;;;;3.80;3.10;;;12.10;88.30;;;;;;5032952;28;20198;-62
2022/12/08 11:41:27;;;;;;;2.83;2.47;;;11.10;89.50;;;;;;5032013;28;20204;-62
2022/12/08 11:44:01;;;;;;;2.80;2.60;;;10.50;91.00;;;;;;5032509;28;20202;-62
2022/12/08 11:46:34;;;;;;;3.33;2.67;;;10.30;91.40;;;;;;5032461;28;20591;-63
2022/12/08 11:49:04;;;;;;;3.47;2.90;;;9.90;92.10;;;;;;5032489;28;20205;-61
2022/12/08 11:51:33;;;;;;;3.50;3.15;;;10.00;91.80;;;;;;5032405;28;20228;-63
2022/12/08 11:54:11;;;;;;;3.55;2.80;;;10.30;91.90;;;;;;5031292;28;20208;-63
2022/12/08 11:56:42;;;;;;;2.90;2.63;;;10.70;91.50;;;;;;5032811;28;20485;-62
2022/12/08 11:59:18;;;;;;;3.00;2.45;;;11.30;91.10;;;;;;5032895;28;20237;-61
2022/12/08 12:01:45;;;;;;;5.20;3.10;;;10.90;91.00;;;;;;5031841;28;20284;-63
2022/12/08 12:04:21;;;;;;;2.53;2.30;;;10.70;91.30;;;;;;5032797;28;20210;-61
2022/12/08 12:07:24;;;;;;;2.90;2.60;;;10.90;90.80;;;;;;5031631;28;20725;-61
2022/12/08 12:10:04;;;;;;;4.93;2.70;;;9.80;91.60;;;;;;5031731;28;20215;-61
2022/12/08 12:12:45;;;;;;;3.63;2.60;;;8.10;93.60;;;;;;5031457;28;20222;-60
2022/12/08 12:15:56;;;;;;;3.47;3.03;;;7.20;94.60;;;;;;5031327;28;20205;-63
2022/12/08 12:18:28;;;;;;;3.85;2.53;;;6.20;96.50;;;;;;5031198;28;20561;-63
2022/12/08 12:21:00;;;;;;;3.97;2.88;;;6.30;97.30;;;;;;5030719;28;20673;-63
2022/12/08 12:23:35;;;;;;;4.00;2.45;;;6.00;97.00;;;;;;5031021;28;20202;-63
2022/12/08 12:26:05;;;;;;;2.97;2.50;;;5.40;97.70;;;;;;5011963;28;20225;-63
2022/12/08 12:28:40;;;;;;;5.28;2.85;;;5.10;98.60;;;;;;5008425;28;20733;-63
2022/12/08 12:31:10;;;;;;;3.08;2.65;;;4.60;99.20;;;;;;5007592;28;20221;-63
2022/12/08 12:33:37;;;;;;;2.97;2.00;;;4.70;99.50;;;;;;5011441;28;20202;-63
2022/12/08 12:36:08;;;;;;;4.07;2.30;;;5.30;99.30;;;;;;5011090;28;20250;-63
2022/12/08 12:41:26;;;;;;;4.10;2.40;;;5.90;97.80;;;;;;5010287;28;20197;-63
2022/12/08 12:44:23;;;;;;;3.60;2.25;;;6.10;97.80;;;;;;5010775;28;20674;-63
2022/12/08 12:46:58;;;;;;;5.72;3.15;;;5.90;97.70;;;;;;5011056;28;20253;-63
2022/12/08 12:50:05;;;;;;;2.70;2.30;;;6.20;98.00;;;;;;5011102;28;20221;-63
2022/12/08 12:52:48;;;;;;;3.17;2.47;;;6.50;98.30;;;;;;5010586;28;20276;-61
2022/12/08 12:55:28;;;;;;;2.83;2.58;;;6.70;97.20;;;;;;5010916;28;20206;-61
2022/12/08 12:57:56;;;;;;;3.53;2.42;;;6.70;96.90;;;;;;5010734;28;20226;-61
2022/12/08 13:00:24;;;;;;;3.42;3.05;;;6.30;97.10;;;;;;5010300;28;20203;-62
2022/12/08 13:02:53;;;;;;;4.97;2.53;;;6.20;97.70;;;;;;5010914;28;20634;-62
2022/12/08 13:05:22;;;;;;;2.88;2.47;;;6.40;98.10;;;;;;5010826;28;20225;-61
2022/12/08 13:07:54;;;;;;;2.72;2.53;;;6.50;97.60;;;;;;5010686;28;20222;-62
2022/12/08 13:10:23;;;;;;;3.67;2.35;;;6.10;98.00;;;;;;5010441;28;20302;-62
2022/12/08 13:13:06;;;;;;;3.88;2.50;;;6.10;98.50;;;;;;5010889;28;20265;-64
2022/12/08 13:15:36;;;;;;;2.80;2.45;;;6.90;97.70;;;;;;5011116;28;20242;-62
2022/12/08 13:18:03;;;;;;;4.13;2.90;;;7.50;97.00;;;;;;5011441;28;20223;-63
2022/12/08 13:20:30;;;;;;;3.10;1.98;;;7.80;96.60;;;;;;5011510;28;20573;-63
2022/12/08 13:23:26;;;;;;;3.30;3.00;;;8.20;96.70;;;;;;5011366;28;20207;-63
2022/12/08 13:26:11;;;;;;;3.80;2.35;;;7.90;96.10;;;;;;5010745;28;20212;-63
2022/12/08 13:29:05;;;;;;;4.30;2.60;;;7.10;96.70;;;;;;5011336;28;20207;-63